Time;durP1;ratioP1;P1;durP2;ratioP2;P2;SDS_P1;SDS_P2;PMS_P1;PMS_P2;Temp;Humidity;BMP_temperature;BMP_pressure;BME280_temperature;BME280_humidity;BME280_pressure;Samples;Min_cycle;Max_cycle;Signal;HPM_P1;HPM_P2
2023/04/15 00:05:46;;;;;;;1.23;0.80;;;;;;;20.21;41.29;100672.91;20662798;28;20400;-67
2023/04/15 00:15:52;;;;;;;2.05;0.90;;;;;;;20.26;41.28;100694.03;20663292;28;20061;-67
2023/04/15 00:25:54;;;;;;;0.90;0.70;;;;;;;20.22;41.35;100693.50;20661479;28;20058;-67
2023/04/15 00:35:55;;;;;;;1.35;0.70;;;;;;;20.20;41.18;100690.13;20661158;28;20050;-67
2023/04/15 00:45:59;;;;;;;1.23;0.90;;;;;;;20.18;41.33;100692.13;20658976;28;20467;-67
2023/04/15 00:56:01;;;;;;;1.95;0.80;;;;;;;20.16;41.41;100704.09;20657966;28;20046;-67
2023/04/15 01:06:03;;;;;;;1.45;0.90;;;;;;;20.12;41.05;100704.41;20659334;28;20189;-67
2023/04/15 01:16:06;;;;;;;1.13;0.88;;;;;;;20.10;41.19;100705.56;20657297;28;20046;-67
2023/04/15 01:26:08;;;;;;;0.98;0.68;;;;;;;20.06;41.12;100707.72;20656969;28;20042;-67
2023/04/15 01:36:10;;;;;;;1.60;1.00;;;;;;;20.04;40.92;100709.75;20655352;28;20050;-67
2023/04/15 01:46:11;;;;;;;1.50;0.70;;;;;;;20.02;40.86;100709.06;20655342;28;20138;-67
2023/04/15 01:56:13;;;;;;;1.58;1.20;;;;;;;20.00;40.88;100711.06;20655694;28;20046;-67
2023/04/15 02:06:18;;;;;;;1.30;0.88;;;;;;;19.97;40.78;100708.66;20652166;28;20557;-67
2023/04/15 02:16:21;;;;;;;1.35;0.90;;;;;;;19.93;40.71;100710.81;20655031;28;20053;-67
2023/04/15 02:26:24;;;;;;;1.17;0.88;;;;;;;19.91;40.56;100718.22;20647409;28;20078;-67
2023/04/15 02:36:28;;;;;;;2.15;1.00;;;;;;;19.89;40.51;100730.19;20644000;28;20053;-67
2023/04/15 02:46:30;;;;;;;0.85;0.73;;;;;;;19.85;40.38;100751.25;20644546;28;20763;-67
2023/04/15 02:56:31;;;;;;;1.33;0.90;;;;;;;19.83;40.46;100754.06;20645388;28;20125;-67
2023/04/15 03:06:34;;;;;;;1.45;1.10;;;;;;;19.76;40.42;100753.00;20633228;28;20054;-67
2023/04/15 03:16:38;;;;;;;1.13;1.02;;;;;;;19.84;40.31;100766.59;20649160;28;20050;-67
2023/04/15 03:26:40;;;;;;;1.25;1.02;;;;;;;19.84;40.41;100771.16;20650367;28;20620;-66
2023/04/15 03:36:50;;;;;;;1.48;1.00;;;;;;;19.83;40.19;100781.09;20654412;28;20068;-67
2023/04/15 03:46:51;;;;;;;1.17;0.85;;;;;;;19.82;40.18;100784.78;20652919;28;20108;-67
2023/04/15 03:56:53;;;;;;;1.10;0.88;;;;;;;19.82;40.06;100794.75;20650135;28;20043;-66
2023/04/15 04:06:55;;;;;;;1.02;0.82;;;;;;;19.80;39.96;100797.59;20653940;28;20058;-66
2023/04/15 04:16:56;;;;;;;1.35;0.80;;;;;;;19.70;40.04;100792.28;20650471;28;20082;-67
2023/04/15 04:26:58;;;;;;;1.48;0.90;;;;;;;19.75;39.91;100805.31;20649230;28;20051;-67
2023/04/15 04:37:02;;;;;;;1.02;0.77;;;;;;;19.70;39.95;100819.28;20626425;28;20047;-66
2023/04/15 04:47:06;;;;;;;0.95;0.80;;;;;;;19.67;40.10;100821.44;20629920;28;20050;-66
2023/04/15 04:57:08;;;;;;;1.10;1.00;;;;;;;19.64;40.12;100819.88;20635757;28;20058;-66
2023/04/15 05:07:09;;;;;;;1.00;0.77;;;;;;;19.62;40.03;100818.31;20641239;28;20042;-66
2023/04/15 05:17:11;;;;;;;1.17;1.08;;;;;;;19.52;40.40;100816.53;20634992;28;20047;-66
2023/04/15 05:27:12;;;;;;;1.70;0.90;;;;;;;19.56;40.71;100838.66;20634461;28;20440;-66
2023/04/15 05:37:14;;;;;;;0.80;0.80;;;;;;;19.55;40.98;100848.63;20613330;28;20565;-66
2023/04/15 05:47:16;;;;;;;1.23;1.13;;;;;;;19.48;41.66;100852.94;20626652;28;20105;-66
2023/04/15 05:57:17;;;;;;;1.58;1.27;;;;;;;19.53;43.35;100877.63;20632138;28;20136;-68
2023/04/15 06:07:20;;;;;;;2.75;1.58;;;;;;;19.61;44.72;100889.53;20652069;28;20523;-64
2023/04/15 06:17:21;;;;;;;1.65;1.30;;;;;;;19.67;44.14;100913.25;20641652;28;20734;-65
2023/04/15 06:27:28;;;;;;;1.50;1.13;;;;;;;19.73;44.94;100919.94;20647204;28;20448;-65
2023/04/15 06:37:31;;;;;;;2.15;1.00;;;;;;;19.76;44.63;100931.25;20641852;28;20061;-64
2023/04/15 06:47:35;;;;;;;1.35;1.20;;;;;;;19.75;44.55;100944.94;20652894;28;20457;-64
2023/04/15 06:57:42;;;;;;;1.10;0.90;;;;;;;19.76;44.47;100949.34;20659762;28;20054;-64
2023/04/15 07:07:44;;;;;;;1.05;0.68;;;;;;;19.83;44.85;100951.28;20651983;28;20502;-65
2023/04/15 07:17:45;;;;;;;1.30;0.98;;;;;;;19.90;45.30;100953.41;20653489;28;20073;-64
2023/04/15 07:27:47;;;;;;;0.75;0.75;;;;;;;19.90;45.29;100958.81;20648542;28;20057;-65
2023/04/15 07:37:48;;;;;;;1.90;1.17;;;;;;;19.88;45.38;100975.16;20663202;28;20078;-65
2023/04/15 07:47:52;;;;;;;1.80;0.88;;;;;;;19.85;45.38;100967.34;20664981;28;20130;-65
2023/04/15 07:57:54;;;;;;;1.10;0.90;;;;;;;19.85;45.29;100975.47;20664722;28;20108;-65
2023/04/15 08:07:57;;;;;;;0.77;0.77;;;;;;;19.88;45.31;100977.88;20663419;28;20049;-65
2023/04/15 08:18:03;;;;;;;1.17;0.90;;;;;;;20.00;45.16;100983.97;20647158;28;20042;-65
2023/04/15 08:28:10;;;;;;;0.73;0.65;;;;;;;19.95;45.24;100989.81;20660361;28;20050;-65
2023/04/15 08:38:11;;;;;;;;;;;;;;;19.95;45.23;100997.09;20660093;28;20354;-65
2023/04/15 08:48:15;;;;;;;0.68;0.63;;;;;;;19.90;45.28;100999.34;20660486;28;19926;-65
2023/04/15 08:58:19;;;;;;;0.50;0.50;;;;;;;19.90;45.34;101004.75;20659694;28;20151;-65
2023/04/15 09:08:21;;;;;;;0.80;0.70;;;;;;;19.92;45.16;101016.28;20656497;28;20074;-65
2023/04/15 09:18:34;;;;;;;0.82;0.82;;;;;;;19.94;45.15;101033.22;20657564;28;20522;-65
2023/04/15 09:28:42;;;;;;;1.08;0.80;;;;;;;19.98;45.19;101043.56;20657392;28;20101;-65
2023/04/15 09:38:55;;;;;;;0.80;0.80;;;;;;;19.99;45.16;101053.38;20656579;28;20082;-65
2023/04/15 09:49:07;;;;;;;1.17;0.80;;;;;;;19.98;45.08;101050.81;20639443;28;20046;-65
2023/04/15 09:59:11;;;;;;;1.00;0.60;;;;;;;19.99;45.20;101063.34;20634131;28;20061;-65
2023/04/15 10:09:13;;;;;;;0.65;0.55;;;;;;;19.99;45.04;101069.59;20654360;28;20043;-65
2023/04/15 10:19:18;;;;;;;0.57;0.57;;;;;;;20.02;44.75;101076.56;20641960;28;20493;-66
2023/04/15 10:29:24;;;;;;;0.80;0.80;;;;;;;20.03;44.98;101078.25;20646154;28;20046;-66
2023/04/15 10:39:36;;;;;;;0.85;0.70;;;;;;;20.03;45.40;101085.50;20664259;28;20056;-66
2023/04/15 10:49:45;;;;;;;0.68;0.60;;;;;;;20.06;45.23;101094.19;20668360;28;20109;-66
2023/04/15 11:00:03;;;;;;;1.05;0.60;;;;;;;20.06;45.27;101096.88;20668159;28;20065;-66
2023/04/15 11:10:24;;;;;;;0.50;0.50;;;;;;;20.07;45.18;101101.28;20666765;28;20438;-66
2023/04/15 11:20:36;;;;;;;0.73;0.73;;;;;;;20.08;45.26;101108.41;20666259;28;20520;-66
2023/04/15 11:30:38;;;;;;;1.43;0.47;;;;;;;20.09;45.29;101114.63;20666220;28;20137;-66
2023/04/15 11:40:40;;;;;;;0.73;0.50;;;;;;;20.11;45.38;101127.03;20648165;28;20072;-66
2023/04/15 11:51:00;;;;;;;1.05;0.70;;;;;;;20.11;45.20;101128.88;20663943;28;20035;-66
2023/04/15 12:01:04;;;;;;;1.00;0.60;;;;;;;20.12;45.14;101128.72;20662562;28;20446;-66
2023/04/15 12:11:08;;;;;;;0.77;0.60;;;;;;;20.13;45.39;101143.09;20661878;28;20134;-66
2023/04/15 12:21:12;;;;;;;1.80;0.70;;;;;;;20.14;45.49;101156.47;20661729;28;20085;-66
2023/04/15 12:31:13;;;;;;;1.53;0.80;;;;;;;20.18;45.63;101169.69;20660473;28;20162;-66
2023/04/15 12:41:19;;;;;;;1.43;0.70;;;;;;;20.19;45.51;101172.25;20659821;28;20051;-66
2023/04/15 12:51:21;;;;;;;0.80;0.57;;;;;;;20.21;45.71;101193.72;20657912;28;20415;-66
2023/04/15 13:01:22;;;;;;;1.30;0.70;;;;;;;20.21;46.02;101205.41;20658823;28;20478;-66
2023/04/15 13:11:25;;;;;;;0.98;0.60;;;;;;;20.24;45.98;101217.75;20658136;28;20129;-66
2023/04/15 13:21:27;;;;;;;0.88;0.60;;;;;;;20.21;46.32;101215.34;20644883;28;20149;-66
2023/04/15 13:31:29;;;;;;;1.80;0.73;;;;;;;20.29;46.05;101242.50;20635672;28;20460;-66
2023/04/15 13:41:33;;;;;;;0.60;0.50;;;;;;;20.32;46.20;101239.50;20629628;28;20120;-66
2023/04/15 13:51:37;;;;;;;1.43;0.90;;;;;;;20.33;46.21;101249.38;20630305;28;20805;-66
2023/04/15 14:01:42;;;;;;;1.33;0.67;;;;;;;20.33;46.44;101246.66;20625096;28;20583;-67
2023/04/15 14:11:44;;;;;;;0.65;0.40;;;;;;;20.34;46.86;101259.19;20616861;28;20137;-66
2023/04/15 14:21:46;;;;;;;1.15;0.60;;;;;;;20.31;46.82;101256.75;20640690;28;20054;-66
2023/04/15 14:31:50;;;;;;;1.20;0.50;;;;;;;20.35;46.73;101265.44;20619994;28;20057;-66
2023/04/15 14:42:12;;;;;;;0.98;0.40;;;;;;;20.36;46.92;101278.81;20629135;28;20141;-66
2023/04/15 14:52:14;;;;;;;1.58;0.50;;;;;;;20.36;46.88;101289.63;20620701;28;20043;-66
2023/04/15 15:02:16;;;;;;;2.90;0.60;;;;;;;20.32;46.90;101304.41;20606448;28;20054;-66
2023/04/15 15:12:38;;;;;;;0.98;0.40;;;;;;;20.30;46.97;101322.63;20639277;28;20100;-66
2023/04/15 15:22:39;;;;;;;1.20;0.40;;;;;;;20.26;47.19;101327.47;20635312;28;20121;-66
2023/04/15 15:32:41;;;;;;;1.83;0.50;;;;;;;20.25;47.44;101336.59;20649909;28;20045;-65
2023/04/15 15:42:49;;;;;;;0.50;0.40;;;;;;;20.25;47.65;101346.53;20647033;28;20388;-65
2023/04/15 15:52:54;;;;;;;5.75;2.38;;;;;;;20.24;48.73;101358.34;20650540;28;20051;-63
2023/04/15 16:02:58;;;;;;;6.40;2.60;;;;;;;20.23;48.78;101372.84;20645085;28;20050;-64
2023/04/15 16:13:02;;;;;;;7.32;2.70;;;;;;;20.26;49.64;101380.69;20644511;28;20453;-66
2023/04/15 16:23:14;;;;;;;6.70;3.58;;;;;;;20.28;50.89;101384.97;20629653;28;20034;-64
2023/04/15 16:33:16;;;;;;;4.57;2.75;;;;;;;20.38;52.22;101393.09;20625450;28;20431;-65
2023/04/15 16:43:18;;;;;;;4.53;2.40;;;;;;;20.47;54.32;101409.47;20646193;28;20058;-66
2023/04/15 16:53:19;;;;;;;6.63;2.40;;;;;;;20.59;56.18;101411.03;20621813;28;20112;-65
2023/04/15 17:03:21;;;;;;;4.13;2.13;;;;;;;20.65;56.72;101424.00;20641797;28;20590;-65
2023/04/15 17:13:24;;;;;;;4.88;2.13;;;;;;;20.67;56.60;101438.22;20648326;28;20550;-66
2023/04/15 17:23:26;;;;;;;4.22;2.13;;;;;;;20.64;56.37;101453.91;20615175;28;20051;-66
2023/04/15 17:33:32;;;;;;;5.20;2.10;;;;;;;20.59;56.09;101457.03;20637511;28;20046;-66
2023/04/15 17:43:54;;;;;;;3.25;1.50;;;;;;;20.57;55.75;101464.41;20634970;28;20045;-66
2023/04/15 17:53:56;;;;;;;2.90;1.60;;;;;;;20.58;55.54;101466.13;20645352;28;20038;-66
2023/04/15 18:03:58;;;;;;;2.83;1.50;;;;;;;20.58;55.03;101476.94;20635191;28;20054;-65
2023/04/15 18:14:01;;;;;;;3.70;1.65;;;;;;;20.57;54.30;101480.66;20630170;28;20046;-65
2023/04/15 18:24:07;;;;;;;3.28;1.52;;;;;;;20.52;53.80;101500.00;20634195;28;20712;-66
2023/04/15 18:34:09;;;;;;;2.57;1.17;;;;;;;20.50;53.53;101509.25;20638492;28;20101;-65
2023/04/15 18:44:10;;;;;;;3.67;1.40;;;;;;;20.45;53.06;101533.16;20632646;28;20150;-65
2023/04/15 18:54:12;;;;;;;4.85;1.83;;;;;;;20.38;52.61;101541.81;20668915;28;20450;-65
2023/04/15 19:04:15;;;;;;;4.07;1.97;;;;;;;20.35;52.36;101550.22;20656792;28;20062;-65
2023/04/15 19:14:17;;;;;;;2.58;1.50;;;;;;;20.34;51.97;101564.72;20667071;28;20585;-65
2023/04/15 19:24:19;;;;;;;3.97;1.98;;;;;;;20.31;51.83;101578.50;20642182;28;20046;-65
2023/04/15 19:34:20;;;;;;;3.10;1.63;;;;;;;20.21;51.67;101585.72;20661416;28;20109;-65
2023/04/15 19:44:22;;;;;;;3.78;1.65;;;;;;;20.21;51.74;101604.63;20651626;28;20054;-65
2023/04/15 19:54:27;;;;;;;5.40;2.47;;;;;;;20.18;51.58;101599.50;20657135;28;20483;-65
2023/04/15 20:04:29;;;;;;;3.45;1.95;;;;;;;20.14;51.22;101605.19;20654027;28;20093;-65
2023/04/15 20:14:30;;;;;;;3.50;1.98;;;;;;;20.12;51.15;101606.31;20655631;28;20582;-65
2023/04/15 20:24:32;;;;;;;3.33;1.65;;;;;;;20.10;51.14;101592.06;20654591;28;20045;-65
2023/04/15 20:34:33;;;;;;;3.85;2.33;;;;;;;20.08;51.13;101605.72;20657306;28;20495;-65
2023/04/15 20:44:37;;;;;;;3.25;1.92;;;;;;;20.04;51.08;101598.88;20650004;28;20073;-65
2023/04/15 20:54:39;;;;;;;4.95;2.53;;;;;;;20.03;51.08;101599.88;20652531;28;20074;-65
2023/04/15 21:04:40;;;;;;;4.32;2.33;;;;;;;20.00;50.87;101597.44;20649396;28;20081;-65
2023/04/15 21:14:44;;;;;;;4.63;2.72;;;;;;;19.98;51.09;101608.34;20651121;28;20447;-65
2023/04/15 21:24:46;;;;;;;5.10;2.73;;;;;;;19.93;51.20;101613.31;20650064;28;20042;-65
2023/04/15 21:34:51;;;;;;;4.93;2.72;;;;;;;19.95;50.90;101629.41;20625435;28;20053;-65
2023/04/15 21:44:54;;;;;;;5.95;3.30;;;;;;;19.93;50.86;101648.44;20646693;28;20042;-65
2023/04/15 21:54:55;;;;;;;5.68;3.50;;;;;;;19.92;50.85;101659.41;20641279;28;20042;-65
2023/04/15 22:04:57;;;;;;;6.72;3.67;;;;;;;19.90;51.16;101666.75;20646107;28;20085;-65
2023/04/15 22:15:00;;;;;;;5.28;3.63;;;;;;;19.89;51.15;101673.13;20650353;28;20550;-65
2023/04/15 22:25:04;;;;;;;6.83;3.97;;;;;;;19.87;50.98;101678.66;20681561;28;20058;-65
2023/04/15 22:35:11;;;;;;;6.30;3.75;;;;;;;19.85;51.23;101692.28;20673324;28;20085;-65
2023/04/15 22:45:13;;;;;;;4.68;3.30;;;;;;;19.88;51.17;101695.72;20679989;28;20118;-65
2023/04/15 22:55:16;;;;;;;5.22;3.83;;;;;;;19.89;50.89;101698.31;20669464;28;20053;-65
2023/04/15 23:05:17;;;;;;;5.05;3.80;;;;;;;19.91;51.09;101695.50;20671985;28;20109;-65
2023/04/15 23:15:19;;;;;;;5.13;3.53;;;;;;;19.82;51.02;101687.13;20667868;28;20062;-65
2023/04/15 23:25:21;;;;;;;7.15;4.45;;;;;;;19.93;50.99;101715.16;20666085;28;20137;-65
2023/04/15 23:35:24;;;;;;;7.28;4.57;;;;;;;19.94;50.86;101725.81;20655879;28;20042;-65
2023/04/15 23:45:25;;;;;;;7.18;4.65;;;;;;;19.94;50.76;101727.69;20655940;28;20062;-65
2023/04/15 23:55:28;;;;;;;6.45;4.25;;;;;;;19.93;50.76;101734.06;20640211;28;20518;-65
